createdAt,value
2022-10-19T00:01:10.229Z,25.00
2022-10-19T00:06:32.800Z,23.23
2022-10-19T00:11:36.587Z,26.35
2022-10-19T00:16:35.144Z,25.73
2022-10-19T00:21:38.618Z,25.83
2022-10-19T00:26:32.555Z,28.77
2022-10-19T00:31:26.607Z,25.98
2022-10-19T00:36:26.411Z,25.90
2022-10-19T00:41:27.677Z,26.33
2022-10-19T00:46:24.473Z,26.30
2022-10-19T00:51:27.805Z,26.58
2022-10-19T00:56:24.954Z,25.48
2022-10-19T01:01:27.938Z,26.15
2022-10-19T01:06:23.241Z,25.15
2022-10-19T01:11:50.033Z,23.63
2022-10-19T01:17:00.516Z,21.90
2022-10-19T01:22:07.110Z,23.75
2022-10-19T01:27:28.120Z,23.35
2022-10-19T01:32:35.995Z,22.10
2022-10-19T01:37:44.354Z,22.97
2022-10-19T01:43:06.404Z,22.85
2022-10-19T01:48:17.132Z,22.52
2022-10-19T01:53:17.460Z,21.77
2022-10-19T01:58:24.605Z,23.48
2022-10-19T02:03:23.057Z,25.42
2022-10-19T02:08:33.586Z,23.85
2022-10-19T02:13:33.743Z,25.10
2022-10-19T02:18:36.338Z,23.27
2022-10-19T02:23:32.436Z,22.45
2022-10-19T02:28:28.467Z,22.30
2022-10-19T02:33:26.399Z,21.33
2022-10-19T02:38:25.644Z,22.67
2022-10-19T02:43:22.177Z,20.20
2022-10-19T02:48:21.680Z,21.08
2022-10-19T02:53:15.956Z,22.38
2022-10-19T02:58:10.142Z,21.92
2022-10-19T03:03:04.519Z,20.27
2022-10-19T03:07:58.400Z,22.40
2022-10-19T03:12:52.528Z,21.02
2022-10-19T03:17:45.985Z,20.45
2022-10-19T03:22:41.063Z,20.65
2022-10-19T03:27:36.447Z,23.48
2022-10-19T03:32:28.783Z,21.50
2022-10-19T03:37:23.672Z,22.25
2022-10-19T03:42:17.495Z,21.30
2022-10-19T03:47:11.210Z,21.73
2022-10-19T03:52:05.163Z,21.75
2022-10-19T03:57:02.200Z,20.13
2022-10-19T04:02:00.125Z,20.20
2022-10-19T04:06:55.959Z,20.48
2022-10-19T04:11:50.360Z,21.98
2022-10-19T04:16:45.311Z,23.48
2022-10-19T04:21:40.866Z,22.77
2022-10-19T04:26:40.528Z,21.95
2022-10-19T04:36:28.046Z,20.58
2022-10-19T04:41:22.527Z,21.00
2022-10-19T04:46:20.349Z,21.92
2022-10-19T04:51:15.101Z,21.73
2022-10-19T04:56:11.382Z,20.45
2022-10-19T05:01:11.920Z,19.92
2022-10-19T05:06:07.252Z,20.20
2022-10-19T05:11:07.038Z,21.02
2022-10-19T05:16:02.106Z,23.02
2022-10-19T05:21:14.314Z,20.50
2022-10-19T05:26:17.376Z,20.10
2022-10-19T05:31:16.187Z,18.58
2022-10-19T05:36:28.096Z,18.40
2022-10-19T05:41:22.820Z,17.77
2022-10-19T05:46:20.072Z,18.67
2022-10-19T05:51:16.739Z,19.33
2022-10-19T05:56:15.386Z,18.10
2022-10-19T06:01:10.361Z,16.50
2022-10-19T06:06:04.965Z,18.27
2022-10-19T06:11:11.472Z,19.20
2022-10-19T06:16:06.302Z,17.05
2022-10-19T06:21:04.723Z,16.48
2022-10-19T06:25:58.818Z,17.00
2022-10-19T06:30:52.776Z,17.05
2022-10-19T06:35:46.460Z,16.38
2022-10-19T06:40:39.610Z,17.15
2022-10-19T06:45:35.921Z,18.15
2022-10-19T06:50:29.630Z,18.63
2022-10-19T06:55:23.603Z,18.27
2022-10-19T07:00:19.092Z,18.85
2022-10-19T07:05:16.889Z,18.63
2022-10-19T07:10:10.610Z,17.73
2022-10-19T07:15:04.774Z,19.55
2022-10-19T07:19:58.082Z,20.75
2022-10-19T07:24:52.984Z,23.45
2022-10-19T07:29:47.179Z,21.85
2022-10-19T07:34:41.121Z,19.10
2022-10-19T07:39:34.307Z,18.85
2022-10-19T07:44:28.826Z,17.00
2022-10-19T07:49:23.349Z,18.38
2022-10-19T07:54:17.000Z,17.85
2022-10-19T07:59:11.931Z,16.70
2022-10-19T08:09:47.203Z,16.70
2022-10-19T08:14:32.970Z,16.77
2022-10-19T08:19:26.933Z,15.93
2022-10-19T08:24:21.846Z,18.17
2022-10-19T08:29:17.526Z,19.50
2022-10-19T08:34:10.869Z,19.48
2022-10-19T08:39:07.114Z,19.52
2022-10-19T08:44:28.406Z,19.30
2022-10-19T08:49:23.770Z,19.85
2022-10-19T08:54:17.902Z,19.83
2022-10-19T08:59:32.097Z,21.95
2022-10-19T09:04:38.461Z,19.33
2022-10-19T09:09:33.542Z,20.48
2022-10-19T09:14:39.031Z,17.83
2022-10-19T09:19:32.492Z,20.15
2022-10-19T09:24:55.671Z,19.38
2022-10-19T09:29:55.941Z,20.73
2022-10-19T09:34:54.613Z,21.25
2022-10-19T09:39:53.930Z,23.70
2022-10-19T09:44:50.179Z,24.30
2022-10-19T09:49:46.310Z,25.48
2022-10-19T09:54:41.206Z,28.65
2022-10-19T09:59:37.893Z,28.60
2022-10-19T10:04:32.319Z,27.98
2022-10-19T10:09:27.860Z,28.05
2022-10-19T10:14:27.605Z,28.30
2022-10-19T10:19:23.230Z,30.58
2022-10-19T10:24:22.269Z,30.42
2022-10-19T10:29:19.714Z,31.13
2022-10-19T10:34:37.620Z,30.60
2022-10-19T10:39:43.704Z,29.88
2022-10-19T10:44:38.239Z,28.38
2022-10-19T10:49:40.471Z,30.13
2022-10-19T10:54:33.397Z,28.70
2022-10-19T10:59:54.403Z,31.00
2022-10-19T11:04:55.869Z,29.60
2022-10-19T11:10:00.420Z,34.65
2022-10-19T11:14:59.452Z,30.33
2022-10-19T11:19:52.708Z,29.10
2022-10-19T11:24:55.390Z,30.95
2022-10-19T11:30:11.357Z,28.88
2022-10-19T11:35:35.169Z,31.73
2022-10-19T11:41:06.137Z,29.98
2022-10-19T11:46:04.500Z,30.60
2022-10-19T11:51:20.888Z,32.00
2022-10-19T11:56:21.041Z,31.27
2022-10-19T12:01:40.440Z,29.05
2022-10-19T12:06:55.264Z,26.48
2022-10-19T12:12:27.030Z,29.40
2022-10-19T12:17:26.819Z,32.63
2022-10-19T12:22:23.023Z,32.65
2022-10-19T12:27:17.644Z,29.27
2022-10-19T12:32:15.514Z,30.60
2022-10-19T12:37:20.292Z,30.05
2022-10-19T12:42:28.828Z,32.00
2022-10-19T12:47:25.092Z,31.02
2022-10-19T12:52:36.866Z,27.92
2022-10-19T12:57:30.794Z,34.88
2022-10-19T13:02:44.396Z,32.88
2022-10-19T13:07:38.258Z,28.48
2022-10-19T13:12:45.688Z,30.17
2022-10-19T13:18:02.079Z,30.37
2022-10-19T13:23:01.303Z,28.58
2022-10-19T13:28:01.078Z,30.95
2022-10-19T13:32:54.559Z,33.05
2022-10-19T13:38:08.468Z,33.00
2022-10-19T13:43:02.290Z,29.80
2022-10-19T13:48:18.253Z,30.35
2022-10-19T13:53:52.083Z,29.73
2022-10-19T13:59:00.568Z,29.25
2022-10-19T14:04:15.008Z,31.23
2022-10-19T14:09:43.541Z,30.83
2022-10-19T14:14:44.521Z,27.33
2022-10-19T14:19:45.508Z,30.88
2022-10-19T14:24:39.386Z,28.08
2022-10-19T14:29:44.263Z,28.40
2022-10-19T14:34:42.951Z,29.02
2022-10-19T14:44:42.311Z,27.70
2022-10-19T14:49:36.771Z,29.10
2022-10-19T14:54:37.874Z,25.90
2022-10-19T15:00:16.966Z,30.27
2022-10-19T15:05:19.940Z,30.65
2022-10-19T15:10:43.258Z,28.60
2022-10-19T15:15:37.371Z,25.92
2022-10-19T15:20:44.154Z,26.65
2022-10-19T15:25:59.724Z,25.38
2022-10-19T15:31:25.341Z,23.38
2022-10-19T15:36:21.347Z,22.67
2022-10-19T15:41:29.483Z,20.27
2022-10-19T15:46:29.173Z,21.98
2022-10-19T15:51:28.533Z,23.45
2022-10-19T15:56:22.670Z,25.88
2022-10-19T16:01:19.191Z,25.80
2022-10-19T16:06:12.896Z,27.88
2022-10-19T16:11:06.581Z,22.70
2022-10-19T16:16:11.242Z,25.60
2022-10-19T16:21:06.554Z,24.88
2022-10-19T16:25:59.168Z,27.67
2022-10-19T16:31:12.782Z,27.67
2022-10-19T16:36:09.208Z,26.77
2022-10-19T16:41:04.561Z,25.30
2022-10-19T16:45:58.715Z,29.73
2022-10-19T16:51:07.387Z,29.15
2022-10-19T16:56:08.294Z,32.03
2022-10-19T17:01:10.445Z,30.02
2022-10-19T17:06:08.537Z,29.40
2022-10-19T17:11:22.965Z,28.08
2022-10-19T17:16:17.256Z,29.05
2022-10-19T17:21:15.594Z,29.17
2022-10-19T17:26:09.355Z,27.67
2022-10-19T17:31:11.182Z,28.40
2022-10-19T17:36:14.421Z,31.67
2022-10-19T17:41:11.145Z,27.83
2022-10-19T17:46:08.088Z,30.35
2022-10-19T17:51:04.061Z,29.15
2022-10-19T17:56:00.658Z,30.45
2022-10-19T18:00:56.260Z,27.83
2022-10-19T18:06:06.854Z,30.90
2022-10-19T18:11:29.819Z,29.95
2022-10-19T18:16:26.173Z,30.23
2022-10-19T18:21:23.060Z,30.25
2022-10-19T18:26:20.309Z,29.08
2022-10-19T18:31:15.505Z,29.73
2022-10-19T18:36:10.932Z,27.40
2022-10-19T18:41:09.893Z,30.00
2022-10-19T18:46:03.798Z,29.52
2022-10-19T18:50:59.090Z,29.38
2022-10-19T18:55:59.952Z,29.15
2022-10-19T19:01:11.570Z,28.08
2022-10-19T19:06:12.534Z,29.20
2022-10-19T19:11:17.371Z,27.58
2022-10-19T19:16:11.270Z,29.50
2022-10-19T19:21:06.129Z,31.52
2022-10-19T19:25:59.899Z,28.30
2022-10-19T19:30:55.395Z,32.45
2022-10-19T19:35:50.883Z,31.42
2022-10-19T19:40:47.231Z,30.63
2022-10-19T19:45:41.400Z,30.73
2022-10-19T19:50:35.268Z,29.02
2022-10-19T19:55:28.974Z,27.83
2022-10-19T20:00:23.892Z,29.27
2022-10-19T20:05:17.459Z,25.63
2022-10-19T20:10:11.989Z,28.67
2022-10-19T20:15:06.645Z,30.83
2022-10-19T20:20:00.480Z,30.95
2022-10-19T20:24:53.856Z,30.70
2022-10-19T20:29:47.516Z,32.42
2022-10-19T20:34:41.264Z,32.55
2022-10-19T20:39:35.474Z,33.65
2022-10-19T20:44:30.671Z,34.55
2022-10-19T20:49:25.024Z,34.47
2022-10-19T20:54:19.000Z,35.83
2022-10-19T20:59:15.159Z,33.40
2022-10-19T21:04:11.822Z,31.80
2022-10-19T21:09:05.911Z,33.92
2022-10-19T21:14:07.806Z,31.52
2022-10-19T21:19:02.400Z,31.48
2022-10-19T21:24:02.147Z,33.05
2022-10-19T21:28:55.480Z,33.80
2022-10-19T21:33:49.427Z,33.78
2022-10-19T21:38:43.669Z,36.05
2022-10-19T21:43:37.648Z,33.03
2022-10-19T21:48:32.670Z,31.75
2022-10-19T21:53:26.261Z,30.83
2022-10-19T21:58:21.940Z,32.45
2022-10-19T22:03:15.891Z,31.67
2022-10-19T22:08:09.877Z,33.33
2022-10-19T22:13:03.821Z,32.53
2022-10-19T22:18:00.583Z,31.00
2022-10-19T22:22:55.114Z,32.45
2022-10-19T22:27:52.324Z,33.63
2022-10-19T22:32:46.036Z,35.00
2022-10-19T22:37:40.275Z,35.80
2022-10-19T22:43:29.938Z,32.08
2022-10-19T22:48:41.236Z,33.88
2022-10-19T22:53:34.509Z,32.53
2022-10-19T22:58:27.706Z,32.67
2022-10-19T23:03:20.594Z,33.97
2022-10-19T23:08:14.237Z,35.10
2022-10-19T23:13:10.097Z,34.70
2022-10-19T23:18:03.495Z,34.92
2022-10-19T23:22:57.397Z,33.72
2022-10-19T23:27:51.854Z,36.78
2022-10-19T23:32:45.132Z,34.50
2022-10-19T23:37:38.912Z,35.25
2022-10-19T23:42:32.749Z,36.60
2022-10-19T23:47:26.855Z,36.45
2022-10-19T23:52:21.010Z,35.90
2022-10-19T23:57:15.064Z,35.92
